Time;durP1;ratioP1;P1;durP2;ratioP2;P2;SDS_P1;SDS_P2;PMS_P1;PMS_P2;Temp;Humidity;BMP_temperature;BMP_pressure;BME280_temperature;BME280_humidity;BME280_pressure;Samples;Min_cycle;Max_cycle;Signal;HPM_P1;HPM_P2
2023/05/08 00:01:51;;;;;;;2.63;2.53;;;14.10;80.50;;;;;;6007033;23;20157;-77
2023/05/08 00:04:19;;;;;;;2.72;2.45;;;14.10;81.40;;;;;;6004566;23;20637;-77
2023/05/08 00:06:45;;;;;;;2.50;2.47;;;14.10;81.50;;;;;;6006819;23;20152;-76
2023/05/08 00:09:11;;;;;;;3.10;2.95;;;14.10;81.50;;;;;;6006328;23;20156;-77
2023/05/08 00:11:37;;;;;;;3.03;2.83;;;14.10;81.90;;;;;;6006224;23;20149;-76
2023/05/08 00:14:02;;;;;;;3.00;2.80;;;14.10;81.80;;;;;;6006595;23;20216;-75
2023/05/08 00:16:28;;;;;;;2.65;2.55;;;14.10;81.00;;;;;;6006046;23;20187;-75
2023/05/08 00:18:54;;;;;;;3.90;2.53;;;14.00;81.40;;;;;;6006149;23;20612;-76
2023/05/08 00:21:19;;;;;;;2.55;2.45;;;14.00;81.80;;;;;;6006632;23;20148;-77
2023/05/08 00:23:45;;;;;;;2.80;2.70;;;13.90;81.70;;;;;;6005032;23;20244;-77
2023/05/08 00:26:11;;;;;;;2.53;2.33;;;13.80;82.00;;;;;;6006306;23;20153;-77
2023/05/08 00:28:36;;;;;;;2.17;2.08;;;13.80;82.30;;;;;;6003971;23;20148;-76
2023/05/08 00:31:02;;;;;;;2.40;2.30;;;13.70;83.00;;;;;;6003093;23;20163;-76
2023/05/08 00:33:28;;;;;;;3.08;2.97;;;13.70;83.10;;;;;;6004380;23;20203;-76
2023/05/08 00:36:01;;;;;;;2.40;2.30;;;13.60;82.40;;;;;;6003808;23;20156;-76
2023/05/08 00:38:28;;;;;;;2.53;2.17;;;13.50;85.00;;;;;;6004304;23;20149;-76
2023/05/08 00:40:54;;;;;;;2.95;2.75;;;13.50;83.20;;;;;;6004280;23;20213;-76
2023/05/08 00:43:24;;;;;;;2.28;2.17;;;13.50;83.00;;;;;;6005110;23;20702;-76
2023/05/08 00:45:50;;;;;;;2.80;2.58;;;13.40;85.10;;;;;;6005367;23;20137;-76
2023/05/08 00:48:16;;;;;;;3.15;2.92;;;13.20;85.60;;;;;;6006182;23;20231;-75
2023/05/08 00:50:42;;;;;;;2.88;2.78;;;13.30;84.30;;;;;;6006173;23;20148;-76
2023/05/08 00:53:08;;;;;;;2.45;2.35;;;13.30;84.40;;;;;;6006251;23;20214;-76
2023/05/08 00:55:34;;;;;;;2.97;2.78;;;13.20;85.50;;;;;;6005123;23;20510;-76
2023/05/08 00:58:00;;;;;;;2.60;2.42;;;13.20;84.30;;;;;;6006260;23;20152;-76
2023/05/08 01:00:25;;;;;;;2.30;2.20;;;13.20;84.30;;;;;;6006235;23;20486;-75
2023/05/08 01:02:51;;;;;;;2.13;2.03;;;13.30;84.40;;;;;;6004120;23;20219;-76
2023/05/08 01:05:17;;;;;;;2.65;2.55;;;13.30;84.40;;;;;;6005553;23;20159;-76
2023/05/08 01:07:43;;;;;;;2.28;2.17;;;13.40;83.80;;;;;;6006371;23;20196;-77
2023/05/08 01:10:09;;;;;;;2.75;2.35;;;13.40;83.30;;;;;;6006548;23;20159;-75
2023/05/08 01:12:53;;;;;;;2.63;2.53;;;13.30;83.30;;;;;;6004327;23;20167;-77
2023/05/08 01:15:19;;;;;;;2.40;2.30;;;13.30;84.00;;;;;;6004232;23;20621;-76
2023/05/08 01:17:47;;;;;;;2.83;2.20;;;13.30;84.30;;;;;;6006532;23;20153;-75
2023/05/08 01:20:58;;;;;;;4.40;2.70;;;13.30;84.20;;;;;;6005881;23;20156;-76
2023/05/08 01:23:39;;;;;;;5.60;2.13;;;13.20;83.90;;;;;;5999019;23;20164;-75
2023/05/08 01:26:36;;;;;;;2.55;2.17;;;13.20;83.50;;;;;;6003985;23;20159;-76
2023/05/08 01:29:29;;;;;;;2.03;1.90;;;13.10;83.80;;;;;;6004024;23;20149;-76
2023/05/08 01:31:57;;;;;;;2.58;2.45;;;13.10;84.10;;;;;;6007570;23;20229;-76
2023/05/08 01:34:30;;;;;;;2.33;2.22;;;13.10;84.10;;;;;;6005579;23;20192;-77
2023/05/08 01:37:13;;;;;;;2.63;2.25;;;13.00;84.30;;;;;;6006608;23;20144;-76
2023/05/08 01:39:54;;;;;;;2.70;2.47;;;13.00;84.30;;;;;;6005184;23;20148;-76
2023/05/08 01:42:34;;;;;;;2.08;1.98;;;13.00;84.00;;;;;;6006778;23;20550;-76
2023/05/08 01:45:05;;;;;;;1.80;1.70;;;13.00;84.70;;;;;;6005520;23;20156;-76
2023/05/08 01:47:34;;;;;;;2.35;2.22;;;12.90;84.80;;;;;;6007783;23;20191;-76
2023/05/08 01:50:06;;;;;;;1.65;1.65;;;12.90;85.30;;;;;;6006824;23;20232;-76
2023/05/08 01:52:35;;;;;;;2.08;2.05;;;12.70;86.20;;;;;;6007922;23;20136;-76
2023/05/08 01:55:06;;;;;;;2.42;2.20;;;12.70;84.80;;;;;;6007626;23;20235;-75
2023/05/08 01:57:34;;;;;;;2.40;2.13;;;12.80;84.80;;;;;;6007814;23;20173;-76
2023/05/08 02:00:02;;;;;;;2.30;2.20;;;12.70;84.90;;;;;;6006690;23;20152;-76
2023/05/08 02:02:30;;;;;;;3.78;2.33;;;12.70;85.50;;;;;;6007891;23;20161;-75
2023/05/08 02:04:57;;;;;;;2.60;2.25;;;12.70;85.80;;;;;;6005021;23;20244;-75
2023/05/08 02:07:23;;;;;;;2.35;2.25;;;12.60;86.20;;;;;;6007514;23;20207;-76
2023/05/08 02:09:50;;;;;;;2.42;2.22;;;12.60;86.20;;;;;;6007859;23;20213;-76
2023/05/08 02:12:17;;;;;;;2.35;2.25;;;12.60;86.20;;;;;;6007916;23;20163;-75
2023/05/08 02:14:44;;;;;;;2.30;2.10;;;12.60;86.60;;;;;;6007885;23;20196;-76
2023/05/08 02:17:13;;;;;;;3.08;2.13;;;12.50;86.80;;;;;;6007240;23;20597;-75
2023/05/08 02:19:39;;;;;;;1.95;1.88;;;12.40;88.20;;;;;;6006885;23;20259;-76
2023/05/08 02:22:07;;;;;;;2.05;1.92;;;12.30;89.00;;;;;;6006243;23;20160;-76
2023/05/08 02:24:34;;;;;;;2.40;2.30;;;12.20;89.40;;;;;;6007485;23;20156;-75
2023/05/08 02:27:00;;;;;;;1.80;1.80;;;12.30;87.80;;;;;;6007839;23;20148;-76
2023/05/08 02:29:28;;;;;;;2.78;2.58;;;12.30;87.20;;;;;;6007049;23;20199;-76
2023/05/08 02:31:55;;;;;;;2.45;2.22;;;12.40;86.70;;;;;;6007792;23;20187;-76
2023/05/08 02:34:23;;;;;;;2.17;2.05;;;12.40;87.20;;;;;;6007327;23;20192;-76
2023/05/08 02:36:53;;;;;;;2.92;1.85;;;12.40;86.60;;;;;;6006736;23;20157;-76
2023/05/08 02:39:21;;;;;;;2.53;2.35;;;12.40;86.50;;;;;;6006725;23;20145;-75
2023/05/08 02:41:47;;;;;;;2.00;1.90;;;12.40;86.40;;;;;;6005910;23;20160;-76
2023/05/08 02:44:13;;;;;;;2.40;2.25;;;12.40;86.40;;;;;;6007536;23;20152;-76
2023/05/08 02:46:46;;;;;;;2.40;2.28;;;12.40;86.30;;;;;;6007344;23;20160;-76
2023/05/08 02:49:21;;;;;;;2.90;2.00;;;12.40;85.90;;;;;;6007115;23;20149;-77
2023/05/08 02:52:13;;;;;;;2.20;2.10;;;12.30;87.50;;;;;;6007610;23;20172;-77
2023/05/08 02:54:42;;;;;;;2.13;2.00;;;12.10;89.10;;;;;;6002825;23;20265;-76
2023/05/08 02:57:29;;;;;;;1.90;1.90;;;12.20;87.80;;;;;;6006580;23;20511;-77
2023/05/08 03:00:15;;;;;;;2.50;2.00;;;12.20;88.80;;;;;;6007335;23;20141;-75
2023/05/08 03:02:47;;;;;;;3.33;2.80;;;12.10;88.40;;;;;;6007301;23;20643;-77
2023/05/08 03:05:18;;;;;;;1.85;1.75;;;12.20;87.30;;;;;;6007018;23;20160;-76
2023/05/08 03:07:48;;;;;;;1.85;1.85;;;12.30;87.50;;;;;;6007659;23;20213;-76
2023/05/08 03:10:17;;;;;;;1.60;1.60;;;12.30;87.30;;;;;;6007688;23;20151;-76
2023/05/08 03:12:47;;;;;;;1.98;1.88;;;12.30;87.70;;;;;;6007217;23;20160;-76
2023/05/08 03:15:28;;;;;;;1.92;1.85;;;12.30;87.20;;;;;;6006577;23;20141;-76
2023/05/08 03:18:02;;;;;;;2.75;2.42;;;12.20;88.60;;;;;;6007440;23;20155;-77
2023/05/08 03:20:34;;;;;;;2.38;2.25;;;12.20;88.20;;;;;;6005103;23;20171;-76
2023/05/08 03:23:02;;;;;;;2.05;1.95;;;12.30;87.00;;;;;;6007013;23;20549;-76
2023/05/08 03:25:29;;;;;;;1.83;1.73;;;12.20;88.50;;;;;;6006332;23;20185;-75
2023/05/08 03:27:56;;;;;;;1.77;1.67;;;12.10;88.70;;;;;;6006993;23;20156;-77
2023/05/08 03:30:22;;;;;;;2.10;2.00;;;12.10;88.90;;;;;;6006885;23;20514;-76
2023/05/08 03:32:49;;;;;;;2.60;2.40;;;12.00;88.90;;;;;;6006463;23;20161;-77
2023/05/08 03:35:16;;;;;;;2.10;2.00;;;12.10;88.50;;;;;;6006417;23;20176;-77
2023/05/08 03:37:42;;;;;;;1.98;1.88;;;12.20;87.10;;;;;;6004446;23;20191;-76
2023/05/08 03:40:09;;;;;;;2.47;2.35;;;12.30;86.60;;;;;;6005078;23;20680;-76
2023/05/08 03:42:36;;;;;;;1.77;1.67;;;12.40;86.40;;;;;;6005619;23;20177;-75
2023/05/08 03:45:03;;;;;;;2.08;1.98;;;12.50;86.10;;;;;;6006332;23;20159;-76
2023/05/08 03:47:29;;;;;;;2.08;1.98;;;12.60;86.00;;;;;;6006700;23;20176;-76
2023/05/08 03:49:55;;;;;;;2.10;2.00;;;12.60;85.70;;;;;;6006763;23;20172;-76
2023/05/08 03:52:21;;;;;;;2.40;2.30;;;12.70;85.70;;;;;;6006205;23;20159;-77
2023/05/08 03:54:46;;;;;;;1.95;1.95;;;12.70;85.50;;;;;;6006247;23;20806;-76
2023/05/08 03:57:12;;;;;;;1.38;1.38;;;12.70;85.60;;;;;;6005122;23;20156;-76
2023/05/08 03:59:43;;;;;;;2.05;1.95;;;12.80;85.30;;;;;;6006589;23;20184;-76
2023/05/08 04:02:24;;;;;;;1.80;1.70;;;12.80;84.90;;;;;;6005834;23;20621;-76
2023/05/08 04:05:00;;;;;;;1.60;1.60;;;12.90;84.60;;;;;;6005092;23;20593;-75
2023/05/08 04:07:41;;;;;;;2.00;1.90;;;12.90;84.50;;;;;;6006568;23;20136;-76
2023/05/08 04:10:26;;;;;;;1.70;1.33;;;13.00;84.20;;;;;;6006876;23;20143;-74
2023/05/08 04:13:09;;;;;;;1.52;1.48;;;13.00;83.70;;;;;;6005067;23;20749;-76
2023/05/08 04:15:43;;;;;;;1.40;1.40;;;13.00;83.60;;;;;;6006500;23;20133;-76
2023/05/08 04:18:13;;;;;;;1.13;1.13;;;12.90;83.90;;;;;;6005948;23;20151;-77
2023/05/08 04:20:40;;;;;;;1.35;1.30;;;12.90;83.70;;;;;;6006197;23;20149;-77
2023/05/08 04:23:08;;;;;;;1.50;1.40;;;13.00;83.30;;;;;;6006134;23;20239;-76
2023/05/08 04:25:37;;;;;;;1.42;1.42;;;13.00;83.50;;;;;;6005031;23;20201;-77
2023/05/08 04:28:03;;;;;;;1.30;1.30;;;13.00;84.00;;;;;;6004481;23;20152;-77
2023/05/08 04:30:29;;;;;;;2.08;1.38;;;13.00;84.20;;;;;;6004593;23;20550;-76
2023/05/08 04:32:55;;;;;;;2.78;1.58;;;13.10;84.50;;;;;;6005003;23;20153;-76
2023/05/08 04:35:21;;;;;;;1.25;1.25;;;13.10;84.10;;;;;;6004710;23;20513;-75
2023/05/08 04:37:47;;;;;;;2.30;1.63;;;13.10;84.00;;;;;;6005415;23;20153;-76
2023/05/08 04:40:13;;;;;;;1.55;1.50;;;13.20;84.00;;;;;;6005684;23;20158;-76
2023/05/08 04:42:41;;;;;;;2.53;1.35;;;13.20;84.20;;;;;;6004415;23;20184;-75
2023/05/08 04:45:08;;;;;;;2.20;1.45;;;13.10;82.90;;;;;;6004194;23;20890;-77
2023/05/08 04:47:33;;;;;;;3.03;1.23;;;13.00;82.60;;;;;;6005790;23;20164;-77
2023/05/08 04:49:59;;;;;;;1.10;1.10;;;13.00;82.60;;;;;;6002811;23;20156;-77
2023/05/08 04:52:25;;;;;;;0.95;0.95;;;13.00;82.70;;;;;;6002555;23;20204;-77
2023/05/08 04:54:50;;;;;;;1.13;1.13;;;13.20;82.90;;;;;;6003592;23;20291;-77
2023/05/08 04:57:16;;;;;;;1.05;1.05;;;13.20;82.80;;;;;;6004318;23;20179;-77
2023/05/08 04:59:42;;;;;;;1.52;1.33;;;13.30;82.70;;;;;;6004558;23;20725;-75
2023/05/08 05:02:08;;;;;;;1.15;1.15;;;13.40;82.70;;;;;;6002569;23;20171;-76
2023/05/08 05:04:35;;;;;;;0.98;0.98;;;13.40;82.60;;;;;;6004512;23;20152;-77
2023/05/08 05:07:03;;;;;;;2.65;1.35;;;13.50;82.90;;;;;;6004603;23;20156;-77
2023/05/08 05:09:29;;;;;;;1.20;1.20;;;13.60;82.90;;;;;;6004038;23;20149;-76
2023/05/08 05:11:55;;;;;;;1.65;1.55;;;13.60;81.50;;;;;;6004834;23;20215;-78
2023/05/08 05:14:21;;;;;;;2.13;1.75;;;13.70;81.90;;;;;;6003306;23;20188;-76
2023/05/08 05:16:46;;;;;;;1.48;1.48;;;13.70;81.70;;;;;;6004031;23;20188;-77
2023/05/08 05:19:12;;;;;;;1.80;1.70;;;13.80;82.10;;;;;;6003235;23;20157;-76
2023/05/08 05:21:38;;;;;;;1.42;1.42;;;13.80;82.00;;;;;;6005025;23;20176;-76
2023/05/08 05:24:05;;;;;;;1.70;1.63;;;13.90;81.70;;;;;;6005712;23;20152;-77
2023/05/08 05:26:31;;;;;;;2.22;1.80;;;13.90;81.90;;;;;;6005257;23;20157;-76
2023/05/08 05:28:57;;;;;;;1.55;1.48;;;14.00;82.00;;;;;;6005597;23;20224;-76
2023/05/08 05:31:22;;;;;;;1.70;1.70;;;14.10;81.50;;;;;;6004040;23;20565;-77
2023/05/08 05:33:48;;;;;;;1.42;1.42;;;14.10;81.20;;;;;;6006018;23;20195;-75
2023/05/08 05:36:14;;;;;;;1.58;1.58;;;14.10;81.00;;;;;;6005404;23;20640;-76
2023/05/08 05:38:40;;;;;;;1.95;1.67;;;14.20;81.10;;;;;;6005858;23;20175;-77
2023/05/08 05:41:05;;;;;;;2.15;2.05;;;14.30;81.10;;;;;;6005589;23;20179;-74
2023/05/08 05:43:32;;;;;;;4.10;2.33;;;14.30;80.80;;;;;;6005300;23;20156;-74
2023/05/08 05:46:08;;;;;;;1.88;1.88;;;14.40;80.10;;;;;;6005665;23;20163;-74
2023/05/08 05:48:34;;;;;;;1.45;1.45;;;14.40;79.40;;;;;;6006612;23;20176;-74
2023/05/08 05:51:00;;;;;;;2.00;1.77;;;14.50;79.60;;;;;;6005452;23;20160;-74
2023/05/08 05:53:26;;;;;;;1.98;1.88;;;14.60;79.80;;;;;;6005999;23;20252;-75
2023/05/08 05:55:52;;;;;;;2.80;2.60;;;14.70;79.80;;;;;;6005444;23;20157;-74
2023/05/08 05:58:19;;;;;;;5.95;1.88;;;14.70;79.40;;;;;;6004368;23;20184;-74
2023/05/08 06:00:46;;;;;;;3.35;2.10;;;14.80;79.40;;;;;;6004149;23;20164;-74
2023/05/08 06:03:12;;;;;;;1.75;1.75;;;14.90;79.20;;;;;;6006221;23;20163;-75
2023/05/08 06:05:39;;;;;;;2.22;2.13;;;15.00;78.90;;;;;;6005694;23;20212;-75
2023/05/08 06:08:05;;;;;;;2.95;2.05;;;15.10;78.90;;;;;;6003841;23;20243;-73
2023/05/08 06:10:31;;;;;;;1.98;1.90;;;15.10;78.80;;;;;;6006002;23;20163;-76
2023/05/08 06:12:56;;;;;;;2.50;2.03;;;15.20;79.10;;;;;;6005689;23;20601;-74
2023/05/08 06:15:22;;;;;;;2.15;2.05;;;15.30;78.40;;;;;;6006537;23;20172;-74
2023/05/08 06:17:48;;;;;;;1.67;1.60;;;15.30;78.60;;;;;;6007716;23;20235;-74
2023/05/08 06:20:13;;;;;;;2.20;2.00;;;15.40;78.90;;;;;;6007388;23;20175;-75
2023/05/08 06:22:40;;;;;;;2.33;2.22;;;15.40;78.70;;;;;;6007547;23;20276;-73
2023/05/08 06:25:07;;;;;;;2.03;1.92;;;15.50;78.90;;;;;;6007704;23;20232;-74
2023/05/08 06:27:33;;;;;;;4.35;2.28;;;15.60;78.40;;;;;;6007534;23;20617;-75
2023/05/08 06:29:59;;;;;;;3.08;2.15;;;15.70;77.80;;;;;;6005920;23;20288;-74
2023/05/08 06:32:25;;;;;;;3.65;2.72;;;15.80;76.70;;;;;;6007670;23;20181;-74
2023/05/08 06:34:50;;;;;;;3.15;2.08;;;15.80;76.60;;;;;;6006345;23;20195;-74
2023/05/08 06:37:16;;;;;;;2.50;2.28;;;15.90;76.80;;;;;;6006057;23;20216;-74
2023/05/08 06:39:42;;;;;;;2.55;2.45;;;16.00;76.80;;;;;;6006543;23;20148;-74
2023/05/08 06:42:08;;;;;;;2.28;2.08;;;16.00;76.70;;;;;;6006173;23;20163;-74
2023/05/08 06:44:34;;;;;;;2.10;2.00;;;16.20;76.70;;;;;;6007329;23;20586;-74
2023/05/08 06:47:00;;;;;;;3.10;2.25;;;16.30;76.40;;;;;;6007302;23;20167;-74
2023/05/08 06:49:26;;;;;;;2.47;2.28;;;16.40;75.00;;;;;;6006531;23;20204;-74
2023/05/08 06:51:52;;;;;;;2.50;2.30;;;16.50;74.40;;;;;;6007072;23;20191;-74
2023/05/08 06:54:17;;;;;;;2.47;2.25;;;16.70;74.50;;;;;;6006334;23;20188;-74
2023/05/08 06:56:44;;;;;;;3.28;1.90;;;16.90;74.40;;;;;;6004991;23;20160;-74
2023/05/08 06:59:09;;;;;;;2.53;2.42;;;17.00;74.40;;;;;;6006724;23;20153;-74
2023/05/08 07:01:36;;;;;;;2.38;2.28;;;17.20;73.80;;;;;;6006154;23;20211;-75
2023/05/08 07:04:02;;;;;;;2.50;2.30;;;17.40;72.70;;;;;;6006768;23;20157;-74
2023/05/08 07:06:28;;;;;;;3.10;2.78;;;17.50;72.10;;;;;;6005673;23;20149;-74
2023/05/08 07:08:53;;;;;;;3.08;2.88;;;17.70;71.80;;;;;;6006335;23;20224;-75
2023/05/08 07:11:19;;;;;;;3.25;2.90;;;17.80;71.40;;;;;;6006377;23;20188;-75
2023/05/08 07:13:47;;;;;;;3.13;2.92;;;17.80;71.70;;;;;;6006359;23;20187;-76
2023/05/08 07:16:13;;;;;;;15.32;3.70;;;17.90;71.40;;;;;;6003788;23;20272;-74
2023/05/08 07:18:38;;;;;;;3.65;2.83;;;18.10;71.80;;;;;;6004183;23;20505;-74
2023/05/08 07:21:04;;;;;;;3.05;2.85;;;18.20;71.20;;;;;;6003426;23;20152;-75
2023/05/08 07:23:30;;;;;;;3.45;3.08;;;18.40;70.80;;;;;;6005011;23;20202;-76
2023/05/08 07:25:56;;;;;;;4.18;3.05;;;18.50;70.30;;;;;;6002890;23;20195;-75
2023/05/08 07:28:22;;;;;;;2.65;2.53;;;18.60;70.10;;;;;;6002732;23;20580;-76
2023/05/08 07:30:48;;;;;;;3.38;3.17;;;18.80;70.40;;;;;;6003183;23;20159;-75
2023/05/08 07:33:14;;;;;;;3.03;2.83;;;19.00;69.30;;;;;;6003613;23;20715;-74
2023/05/08 07:35:40;;;;;;;3.50;3.30;;;19.10;68.90;;;;;;6002289;23;20168;-75
2023/05/08 07:38:07;;;;;;;4.18;2.70;;;19.10;68.50;;;;;;6001819;23;20159;-76
2023/05/08 07:40:32;;;;;;;2.83;2.65;;;19.20;68.10;;;;;;6003785;23;20148;-76
2023/05/08 07:42:58;;;;;;;3.15;2.88;;;19.20;68.40;;;;;;6003555;23;20159;-75
2023/05/08 07:45:23;;;;;;;3.05;2.85;;;19.20;68.00;;;;;;6005547;23;20159;-75
2023/05/08 07:47:51;;;;;;;2.72;2.58;;;19.30;68.40;;;;;;6004464;23;20172;-75
2023/05/08 07:50:17;;;;;;;3.55;2.58;;;19.40;68.40;;;;;;6005329;23;20487;-74
2023/05/08 07:52:42;;;;;;;2.80;2.70;;;19.60;68.30;;;;;;6005840;23;20185;-74
2023/05/08 07:55:08;;;;;;;3.08;2.55;;;19.70;67.50;;;;;;6005403;23;20210;-75
2023/05/08 07:57:41;;;;;;;2.63;2.40;;;19.80;67.10;;;;;;6005418;23;20162;-75
2023/05/08 08:00:08;;;;;;;2.22;2.22;;;19.90;66.90;;;;;;6005989;23;20157;-75
2023/05/08 08:02:34;;;;;;;3.17;2.50;;;19.90;66.80;;;;;;6003780;23;20797;-75
2023/05/08 08:05:00;;;;;;;2.28;2.17;;;19.90;67.20;;;;;;6005955;23;20205;-76
2023/05/08 08:07:26;;;;;;;2.75;2.63;;;20.00;66.70;;;;;;6004623;23;20168;-76
2023/05/08 08:09:51;;;;;;;2.20;2.20;;;19.90;67.20;;;;;;6006595;23;20208;-73
2023/05/08 08:12:17;;;;;;;2.30;2.00;;;20.00;67.20;;;;;;6006145;23;20545;-74
2023/05/08 08:14:43;;;;;;;2.80;2.25;;;20.10;66.90;;;;;;6006208;23;20263;-74
2023/05/08 08:17:09;;;;;;;2.53;2.50;;;20.30;66.90;;;;;;6005242;23;20152;-74
2023/05/08 08:19:34;;;;;;;2.25;1.83;;;20.40;67.00;;;;;;6005833;23;20232;-74
2023/05/08 08:22:00;;;;;;;2.15;2.05;;;20.60;66.90;;;;;;6005971;23;20153;-74
2023/05/08 08:24:28;;;;;;;2.90;2.70;;;20.70;66.60;;;;;;6005683;23;20157;-77
2023/05/08 08:26:53;;;;;;;2.72;2.42;;;21.00;66.20;;;;;;6005396;23;20508;-75
2023/05/08 08:29:19;;;;;;;2.42;2.05;;;21.20;65.80;;;;;;6005841;23;20163;-75
2023/05/08 08:31:45;;;;;;;3.55;2.83;;;21.40;65.70;;;;;;6006079;23;20185;-75
2023/05/08 08:34:11;;;;;;;2.45;2.25;;;21.70;65.40;;;;;;6005083;23;20192;-75
2023/05/08 08:36:37;;;;;;;2.97;2.22;;;21.80;65.50;;;;;;6005674;23;20272;-75
2023/05/08 08:39:03;;;;;;;3.17;2.22;;;22.00;65.20;;;;;;6004725;23;20177;-75
2023/05/08 08:41:29;;;;;;;3.90;2.85;;;22.10;65.30;;;;;;6005373;23;20669;-75
2023/05/08 08:43:55;;;;;;;2.40;2.30;;;22.30;64.90;;;;;;6004274;23;20510;-75
2023/05/08 08:46:24;;;;;;;2.63;2.40;;;22.50;64.50;;;;;;6005706;23;20157;-75
2023/05/08 08:48:52;;;;;;;3.85;2.15;;;22.60;64.40;;;;;;6005579;23;20794;-76
2023/05/08 08:51:41;;;;;;;2.50;2.30;;;22.60;64.60;;;;;;6004258;23;20163;-74
2023/05/08 08:54:10;;;;;;;3.80;2.20;;;22.70;64.40;;;;;;6005883;23;20629;-74
2023/05/08 08:56:41;;;;;;;4.93;2.67;;;22.70;64.50;;;;;;6005538;23;20574;-74
2023/05/08 08:59:08;;;;;;;3.00;2.40;;;22.80;64.50;;;;;;6006015;23;20171;-74
2023/05/08 09:01:37;;;;;;;2.53;2.42;;;22.80;64.10;;;;;;6005673;23;20160;-75
2023/05/08 09:04:04;;;;;;;4.00;2.60;;;22.90;64.10;;;;;;6005803;23;20152;-75
2023/05/08 09:06:30;;;;;;;5.90;2.55;;;22.90;64.50;;;;;;6005738;23;20157;-75
2023/05/08 09:08:59;;;;;;;3.47;2.83;;;22.90;64.30;;;;;;6005371;23;20295;-75
2023/05/08 09:11:25;;;;;;;2.30;2.13;;;22.90;64.30;;;;;;6005637;23;20148;-75
2023/05/08 09:13:51;;;;;;;2.80;2.17;;;22.80;64.30;;;;;;6005420;23;20557;-75
2023/05/08 09:16:17;;;;;;;2.55;2.28;;;22.70;64.50;;;;;;6005939;23;20660;-74
2023/05/08 09:18:43;;;;;;;2.35;2.25;;;22.70;64.40;;;;;;6005299;23;20601;-75
2023/05/08 09:21:08;;;;;;;2.72;2.50;;;22.60;65.10;;;;;;6006184;23;20156;-75
2023/05/08 09:23:58;;;;;;;2.45;2.40;;;22.50;65.30;;;;;;6005373;23;20156;-75
2023/05/08 09:26:33;;;;;;;3.28;2.38;;;22.50;65.30;;;;;;6006017;23;20165;-75
2023/05/08 09:29:15;;;;;;;2.45;2.13;;;22.50;65.50;;;;;;6005427;23;20214;-75
2023/05/08 09:31:51;;;;;;;3.17;2.97;;;22.40;65.90;;;;;;6004034;23;20168;-75
2023/05/08 09:34:31;;;;;;;2.72;2.63;;;22.40;66.30;;;;;;6005693;23;20262;-76
2023/05/08 09:37:11;;;;;;;2.42;2.33;;;22.40;65.80;;;;;;6005793;23;20144;-75
2023/05/08 09:39:40;;;;;;;3.60;2.80;;;22.40;66.00;;;;;;6005923;23;20141;-75
2023/05/08 09:42:05;;;;;;;3.53;2.78;;;22.40;65.90;;;;;;6006291;23;20172;-75
2023/05/08 09:44:48;;;;;;;2.58;2.47;;;22.50;66.00;;;;;;6005662;23;20157;-75
2023/05/08 09:47:22;;;;;;;2.70;2.47;;;22.60;65.70;;;;;;6004941;23;20179;-75
2023/05/08 09:50:09;;;;;;;2.53;2.42;;;22.70;65.10;;;;;;6007089;23;20267;-75
2023/05/08 09:52:37;;;;;;;2.67;2.25;;;22.80;65.10;;;;;;6007603;23;20156;-74
2023/05/08 09:55:08;;;;;;;2.03;2.03;;;22.90;65.10;;;;;;6007191;23;20192;-76
2023/05/08 09:57:37;;;;;;;2.63;2.47;;;23.00;64.90;;;;;;6005546;23;20159;-75
2023/05/08 10:00:11;;;;;;;2.72;2.60;;;23.10;64.70;;;;;;6007389;23;20178;-75
2023/05/08 10:02:39;;;;;;;2.42;2.33;;;23.30;64.10;;;;;;6006023;23;20154;-75
2023/05/08 10:05:30;;;;;;;2.70;2.50;;;23.40;63.80;;;;;;6007813;23;20196;-75
2023/05/08 10:08:16;;;;;;;2.63;2.40;;;23.60;63.70;;;;;;6007249;23;20482;-75
2023/05/08 10:10:42;;;;;;;2.22;2.22;;;23.70;63.50;;;;;;6007790;23;20144;-74
2023/05/08 10:13:07;;;;;;;2.28;2.17;;;23.70;63.30;;;;;;6007444;23;20191;-75
2023/05/08 10:15:36;;;;;;;2.28;2.17;;;23.70;63.70;;;;;;6007482;23;20612;-74
2023/05/08 10:18:07;;;;;;;2.63;2.53;;;23.80;63.90;;;;;;6007006;23;20196;-74
2023/05/08 10:20:36;;;;;;;2.53;2.30;;;23.90;63.10;;;;;;6007362;23;20153;-75
2023/05/08 10:23:02;;;;;;;2.10;2.05;;;23.90;62.90;;;;;;6007516;23;20152;-75
2023/05/08 10:25:34;;;;;;;2.88;2.50;;;24.10;63.20;;;;;;6007399;23;20156;-75
2023/05/08 10:28:12;;;;;;;2.28;2.17;;;24.30;62.90;;;;;;6004984;23;20163;-74
2023/05/08 10:30:43;;;;;;;2.78;2.65;;;24.40;62.80;;;;;;6006624;23;20528;-74
2023/05/08 10:33:10;;;;;;;2.78;2.67;;;24.60;62.60;;;;;;6006925;23;20141;-75
2023/05/08 10:35:36;;;;;;;2.67;2.60;;;24.70;62.00;;;;;;6006373;23;20153;-75
2023/05/08 10:38:03;;;;;;;2.53;2.42;;;24.80;62.10;;;;;;6006675;23;20153;-76
2023/05/08 10:40:29;;;;;;;3.40;3.05;;;25.00;62.30;;;;;;6007266;23;20153;-75
2023/05/08 10:42:55;;;;;;;2.67;2.55;;;25.30;62.60;;;;;;6007797;23;20593;-76
2023/05/08 10:45:21;;;;;;;2.33;2.22;;;25.80;61.20;;;;;;6007463;23;20551;-75
2023/05/08 10:48:01;;;;;;;3.28;2.42;;;26.50;60.40;;;;;;6006718;23;20259;-75
2023/05/08 10:51:09;;;;;;;3.20;2.67;;;27.30;59.10;;;;;;6007049;23;20196;-74
2023/05/08 10:53:51;;;;;;;2.00;1.98;;;28.30;57.40;;;;;;6002536;23;20636;-74
2023/05/08 10:56:16;;;;;;;2.80;2.55;;;29.30;55.40;;;;;;6007181;23;20152;-76
2023/05/08 10:58:42;;;;;;;2.17;2.17;;;29.90;54.80;;;;;;6002647;23;20152;-75
2023/05/08 11:01:08;;;;;;;2.45;2.30;;;30.50;53.70;;;;;;6005228;23;20624;-74
2023/05/08 11:03:47;;;;;;;2.75;2.55;;;31.20;52.90;;;;;;6006856;23;20157;-74
2023/05/08 11:06:13;;;;;;;2.20;2.20;;;31.90;52.00;;;;;;6006740;23;20151;-75
2023/05/08 11:08:55;;;;;;;2.47;2.38;;;32.20;50.90;;;;;;6006378;23;20866;-76
2023/05/08 11:11:24;;;;;;;2.38;2.35;;;32.40;50.90;;;;;;6006719;23;20140;-75
2023/05/08 11:13:54;;;;;;;2.65;2.55;;;32.60;50.20;;;;;;6006359;23;20258;-76
2023/05/08 11:16:55;;;;;;;2.67;2.65;;;32.90;50.00;;;;;;6006911;23;20146;-76
2023/05/08 11:19:25;;;;;;;2.45;2.45;;;33.20;49.50;;;;;;6006612;23;20165;-75
2023/05/08 11:22:12;;;;;;;2.88;2.72;;;33.50;49.10;;;;;;6006514;23;20503;-75
2023/05/08 11:24:57;;;;;;;3.05;2.67;;;33.70;48.20;;;;;;6003705;23;20611;-75
2023/05/08 11:27:32;;;;;;;2.70;2.60;;;33.90;49.60;;;;;;6006494;23;20144;-75
2023/05/08 11:30:19;;;;;;;2.67;2.67;;;33.90;48.50;;;;;;6007231;23;20177;-75
2023/05/08 11:33:03;;;;;;;3.53;2.63;;;33.90;47.50;;;;;;6006946;23;20152;-75
2023/05/08 11:35:44;;;;;;;2.13;2.13;;;33.90;47.30;;;;;;6006068;23;20687;-75
2023/05/08 11:38:35;;;;;;;2.78;2.58;;;34.20;47.10;;;;;;6004696;23;20580;-75
2023/05/08 11:41:00;;;;;;;2.38;2.38;;;34.80;47.70;;;;;;6007748;23;20145;-76
2023/05/08 11:43:49;;;;;;;2.65;2.55;;;35.10;46.70;;;;;;6006015;23;20482;-75
2023/05/08 11:46:20;;;;;;;2.78;2.67;;;35.60;47.30;;;;;;5991426;23;20160;-75
2023/05/08 11:48:47;;;;;;;3.70;2.55;;;36.10;44.30;;;;;;6006551;23;20538;-74
2023/05/08 11:51:16;;;;;;;2.28;2.17;;;36.40;45.80;;;;;;6007154;23;20156;-76
2023/05/08 11:53:43;;;;;;;3.38;2.35;;;36.80;45.40;;;;;;6006935;23;20708;-75
2023/05/08 11:56:09;;;;;;;2.15;2.13;;;37.20;45.90;;;;;;6006185;23;20160;-76
2023/05/08 11:58:35;;;;;;;2.45;2.35;;;37.30;43.00;;;;;;6006650;23;20604;-76
2023/05/08 12:01:01;;;;;;;2.35;2.28;;;37.30;45.30;;;;;;6006580;23;20235;-74
2023/05/08 12:03:27;;;;;;;2.97;2.13;;;37.40;43.20;;;;;;6006456;23;20211;-76
2023/05/08 12:05:57;;;;;;;2.30;2.20;;;37.00;43.60;;;;;;6006381;23;20259;-77
2023/05/08 12:08:23;;;;;;;4.22;1.90;;;36.90;47.00;;;;;;6007263;23;20148;-73
2023/05/08 12:10:55;;;;;;;2.50;2.40;;;36.70;46.60;;;;;;6006960;23;20163;-73
2023/05/08 12:13:30;;;;;;;2.38;2.30;;;36.40;45.90;;;;;;6005398;23;20191;-73
2023/05/08 12:15:57;;;;;;;2.15;2.03;;;36.00;45.30;;;;;;6007112;23;20214;-72
2023/05/08 12:18:25;;;;;;;1.75;1.75;;;35.60;45.90;;;;;;6006729;23;20148;-74
2023/05/08 12:20:57;;;;;;;1.83;1.83;;;35.40;48.10;;;;;;6006603;23;20496;-75
2023/05/08 12:23:24;;;;;;;2.35;1.75;;;35.40;44.80;;;;;;6006858;23;20140;-75
2023/05/08 12:25:53;;;;;;;2.25;2.15;;;35.20;45.70;;;;;;6006803;23;20152;-75
2023/05/08 12:28:19;;;;;;;2.28;2.17;;;34.90;45.30;;;;;;6005638;23;20208;-75
2023/05/08 12:30:45;;;;;;;1.80;1.70;;;33.60;45.40;;;;;;6004699;23;20197;-75
2023/05/08 12:33:11;;;;;;;2.30;2.10;;;32.50;46.80;;;;;;6006704;23;20539;-74
2023/05/08 12:35:38;;;;;;;2.22;2.10;;;31.40;49.50;;;;;;6005898;23;20156;-74
2023/05/08 12:38:08;;;;;;;2.08;1.65;;;31.00;48.90;;;;;;6005919;23;20152;-75
2023/05/08 12:40:54;;;;;;;1.77;1.70;;;30.80;50.10;;;;;;6006184;23;20156;-73
2023/05/08 12:43:20;;;;;;;2.10;2.10;;;30.80;50.60;;;;;;6005893;23;20140;-74
2023/05/08 12:45:51;;;;;;;1.70;1.70;;;30.90;50.30;;;;;;6005633;23;20148;-74
2023/05/08 12:48:17;;;;;;;1.55;1.55;;;31.00;51.20;;;;;;6006999;23;20663;-74
2023/05/08 12:50:44;;;;;;;1.95;1.85;;;31.00;50.90;;;;;;6006230;23;20152;-73
2023/05/08 12:53:11;;;;;;;1.95;1.85;;;30.60;49.80;;;;;;6006372;23;20151;-73
2023/05/08 12:55:39;;;;;;;2.17;2.10;;;29.70;52.10;;;;;;6006771;23;20163;-73
2023/05/08 12:58:04;;;;;;;1.67;1.67;;;29.10;51.80;;;;;;6005976;23;20296;-73
2023/05/08 13:00:43;;;;;;;1.48;1.48;;;28.30;52.80;;;;;;6006698;23;20184;-73